Time;durP1;ratioP1;P1;durP2;ratioP2;P2;SDS_P1;SDS_P2;PMS_P1;PMS_P2;Temp;Humidity;BMP_temperature;BMP_pressure;BME280_temperature;BME280_humidity;BME280_pressure;Samples;Min_cycle;Max_cycle;Signal;HPM_P1;HPM_P2
2021/09/22 00:01:57;;;;;;;26.77;14.80;;;12.40;99.90;;;;;;5043364;28;20471;-65
2021/09/22 00:04:23;;;;;;;24.75;15.20;;;12.40;99.90;;;;;;5043231;28;20508;-64
2021/09/22 00:06:49;;;;;;;23.65;14.95;;;12.30;99.90;;;;;;5041351;28;20041;-65
2021/09/22 00:09:14;;;;;;;28.35;15.52;;;12.40;99.90;;;;;;5032046;28;20077;-66
2021/09/22 00:11:40;;;;;;;25.85;13.27;;;12.30;99.90;;;;;;5043799;28;20367;-65
2021/09/22 00:14:06;;;;;;;28.88;16.75;;;12.30;99.90;;;;;;5030082;28;20088;-65
2021/09/22 00:16:32;;;;;;;25.23;14.75;;;12.30;99.90;;;;;;5041035;28;20045;-63
2021/09/22 00:18:58;;;;;;;26.23;16.95;;;12.30;99.90;;;;;;5041881;28;20073;-65
2021/09/22 00:21:23;;;;;;;29.27;16.77;;;12.30;99.90;;;;;;5034436;28;20041;-65
2021/09/22 00:23:49;;;;;;;24.00;14.88;;;12.30;99.90;;;;;;5043529;28;20083;-65
2021/09/22 00:26:15;;;;;;;27.77;16.63;;;12.30;99.90;;;;;;5042278;28;20037;-65
2021/09/22 00:28:41;;;;;;;34.42;15.57;;;12.40;99.90;;;;;;5043129;28;20042;-65
2021/09/22 00:31:07;;;;;;;28.05;16.58;;;12.40;99.90;;;;;;5042468;28;20044;-65
2021/09/22 00:33:33;;;;;;;22.10;14.68;;;12.40;99.90;;;;;;5043395;28;20408;-65
2021/09/22 00:35:59;;;;;;;22.70;14.85;;;12.40;99.90;;;;;;5032493;28;20078;-65
2021/09/22 00:38:25;;;;;;;26.67;14.73;;;12.30;99.90;;;;;;5043300;28;20189;-65
2021/09/22 00:40:51;;;;;;;24.83;14.82;;;12.20;99.90;;;;;;5037618;28;20440;-65
2021/09/22 00:43:17;;;;;;;26.50;15.90;;;12.10;99.90;;;;;;5043316;28;20064;-65
2021/09/22 00:45:43;;;;;;;27.70;16.27;;;12.00;99.90;;;;;;5043258;28;20042;-65
2021/09/22 00:48:09;;;;;;;39.00;16.27;;;12.00;99.90;;;;;;5042253;28;20049;-66
2021/09/22 00:50:35;;;;;;;25.83;15.00;;;11.90;99.90;;;;;;5042320;28;20057;-65
2021/09/22 00:53:01;;;;;;;30.88;18.02;;;11.90;99.90;;;;;;5043129;28;20413;-65
2021/09/22 00:55:27;;;;;;;30.98;18.20;;;11.80;99.90;;;;;;5033807;28;20037;-64
2021/09/22 00:57:55;;;;;;;34.88;19.65;;;11.80;99.90;;;;;;5042734;28;20055;-65
2021/09/22 01:00:25;;;;;;;33.03;18.42;;;11.80;99.90;;;;;;5042333;28;20045;-65
2021/09/22 01:02:51;;;;;;;30.45;17.92;;;11.80;99.90;;;;;;5040266;28;20068;-65
2021/09/22 01:05:21;;;;;;;33.00;20.33;;;11.70;99.90;;;;;;5042496;28;20038;-65
2021/09/22 01:07:47;;;;;;;34.83;20.60;;;11.70;99.90;;;;;;5042258;28;20509;-65
2021/09/22 01:10:15;;;;;;;33.83;20.90;;;11.60;99.90;;;;;;5033213;28;20076;-66
2021/09/22 01:12:41;;;;;;;29.10;19.30;;;11.50;99.90;;;;;;5042938;28;20120;-65
2021/09/22 01:15:07;;;;;;;36.38;22.80;;;11.50;99.90;;;;;;5038716;28;20060;-65
2021/09/22 01:17:33;;;;;;;40.20;23.15;;;11.50;99.90;;;;;;5042851;28;20077;-63
2021/09/22 01:20:05;;;;;;;37.28;22.30;;;11.40;99.90;;;;;;5038306;28;20076;-64
2021/09/22 01:22:30;;;;;;;47.05;22.83;;;11.30;99.90;;;;;;5031110;28;20038;-65
2021/09/22 01:24:57;;;;;;;40.20;23.77;;;11.30;99.90;;;;;;5043064;28;20088;-64
2021/09/22 01:27:22;;;;;;;47.25;24.83;;;11.30;99.90;;;;;;5034677;28;20033;-64
2021/09/22 01:29:48;;;;;;;46.60;25.52;;;11.30;99.90;;;;;;5042329;28;20472;-65
2021/09/22 01:32:14;;;;;;;48.17;27.63;;;11.20;99.90;;;;;;5031032;28;20054;-65
2021/09/22 01:34:40;;;;;;;50.10;26.05;;;11.20;99.90;;;;;;5043051;28;20038;-64
2021/09/22 01:37:06;;;;;;;42.38;23.05;;;11.30;99.90;;;;;;5043209;28;20111;-64
2021/09/22 01:39:40;;;;;;;45.53;25.30;;;11.20;99.90;;;;;;5045894;28;20057;-64
2021/09/22 01:42:06;;;;;;;47.83;26.77;;;11.20;99.90;;;;;;5044654;28;20049;-65
2021/09/22 01:44:33;;;;;;;52.88;27.23;;;11.20;99.90;;;;;;5036929;28;20134;-65
2021/09/22 01:47:00;;;;;;;54.75;26.00;;;11.20;99.90;;;;;;5046019;28;20049;-65
2021/09/22 01:49:26;;;;;;;56.08;28.10;;;11.10;99.90;;;;;;5044424;28;20097;-64
2021/09/22 01:51:57;;;;;;;59.40;28.25;;;11.10;99.90;;;;;;5045563;28;20045;-64
2021/09/22 01:54:23;;;;;;;44.05;26.55;;;11.00;99.90;;;;;;5045086;28;20052;-65
2021/09/22 01:56:49;;;;;;;54.15;26.77;;;11.00;99.90;;;;;;5045955;28;20037;-64
2021/09/22 01:59:16;;;;;;;55.00;27.02;;;11.00;99.90;;;;;;5046286;28;20400;-64
2021/09/22 02:01:41;;;;;;;48.35;26.67;;;10.90;99.90;;;;;;5045264;28;20128;-65
2021/09/22 02:04:07;;;;;;;51.88;28.25;;;10.90;99.90;;;;;;5044515;28;20037;-64
2021/09/22 02:06:33;;;;;;;54.22;29.55;;;10.90;99.90;;;;;;5042297;28;20041;-65
2021/09/22 02:08:58;;;;;;;50.97;28.83;;;10.90;99.90;;;;;;5042813;28;20034;-64
2021/09/22 02:11:24;;;;;;;59.20;28.70;;;10.80;99.90;;;;;;5036716;28;20041;-64
2021/09/22 02:13:50;;;;;;;50.25;26.90;;;10.90;99.90;;;;;;5043064;28;20073;-64
2021/09/22 02:16:15;;;;;;;55.60;29.10;;;10.90;99.90;;;;;;5045851;28;20052;-63
2021/09/22 02:18:41;;;;;;;59.78;30.20;;;10.90;99.90;;;;;;5045704;28;20118;-65
2021/09/22 02:21:10;;;;;;;46.38;26.95;;;10.80;99.90;;;;;;5044757;28;20054;-64
2021/09/22 02:23:40;;;;;;;48.13;26.95;;;10.80;99.90;;;;;;5045323;28;20026;-65
2021/09/22 02:26:06;;;;;;;52.00;27.02;;;10.90;99.90;;;;;;5045642;28;20049;-64
2021/09/22 02:28:33;;;;;;;53.40;28.65;;;10.80;99.90;;;;;;5045621;28;20048;-63
2021/09/22 02:30:59;;;;;;;71.68;31.13;;;10.80;99.90;;;;;;5034591;28;20057;-64
2021/09/22 02:33:26;;;;;;;47.65;25.58;;;10.80;99.90;;;;;;5041814;28;20045;-64
2021/09/22 02:35:52;;;;;;;61.13;29.05;;;10.80;99.90;;;;;;5044601;28;20056;-63
2021/09/22 02:38:18;;;;;;;63.50;29.27;;;10.80;99.90;;;;;;5041264;28;20509;-63
2021/09/22 02:40:44;;;;;;;63.08;29.67;;;10.80;99.90;;;;;;5033711;28;20461;-65
2021/09/22 02:43:11;;;;;;;67.15;32.08;;;10.70;99.90;;;;;;5043990;28;20041;-64
2021/09/22 02:45:36;;;;;;;56.83;28.65;;;10.70;99.90;;;;;;5042097;28;20045;-65
2021/09/22 02:48:02;;;;;;;54.83;27.83;;;10.70;99.90;;;;;;5043712;28;20064;-64
2021/09/22 02:50:28;;;;;;;54.92;27.98;;;10.70;99.90;;;;;;5043856;28;20041;-64
2021/09/22 02:52:53;;;;;;;61.20;28.95;;;10.80;99.90;;;;;;5044941;28;20531;-64
2021/09/22 02:55:19;;;;;;;52.40;27.73;;;10.70;99.90;;;;;;5042046;28;20405;-65
2021/09/22 02:57:45;;;;;;;59.95;30.08;;;10.70;99.90;;;;;;5045120;28;20409;-64
2021/09/22 03:00:11;;;;;;;75.68;31.55;;;10.70;99.90;;;;;;5044779;28;20159;-64
2021/09/22 03:02:38;;;;;;;63.95;30.65;;;10.70;99.90;;;;;;5044225;28;20152;-64
2021/09/22 03:05:05;;;;;;;59.40;28.15;;;10.70;99.90;;;;;;5037223;28;20322;-63
2021/09/22 03:07:30;;;;;;;63.90;30.83;;;10.70;99.90;;;;;;5044203;28;20045;-64
2021/09/22 03:09:56;;;;;;;57.92;28.77;;;10.80;99.90;;;;;;5038410;28;20045;-64
2021/09/22 03:12:22;;;;;;;63.28;31.52;;;10.70;99.90;;;;;;5043146;28;20045;-65
2021/09/22 03:14:48;;;;;;;69.60;32.17;;;10.80;99.90;;;;;;5032681;28;20044;-64
2021/09/22 03:17:13;;;;;;;66.65;29.33;;;10.80;99.90;;;;;;5044475;28;20137;-64
2021/09/22 03:19:39;;;;;;;67.63;32.38;;;10.80;99.90;;;;;;5044139;28;20052;-64
2021/09/22 03:22:05;;;;;;;55.13;29.67;;;10.80;99.90;;;;;;5043979;28;20063;-64
2021/09/22 03:24:31;;;;;;;69.57;30.75;;;10.90;99.90;;;;;;5043164;28;20091;-65
2021/09/22 03:26:58;;;;;;;66.40;31.77;;;11.00;99.90;;;;;;5041704;28;20047;-64
2021/09/22 03:29:24;;;;;;;67.00;33.38;;;11.00;99.90;;;;;;5044339;28;20760;-64
2021/09/22 03:31:49;;;;;;;70.72;32.50;;;11.10;99.90;;;;;;5043716;28;20067;-64
2021/09/22 03:34:15;;;;;;;68.05;31.58;;;11.10;99.90;;;;;;5044363;28;20034;-64
2021/09/22 03:36:41;;;;;;;57.78;28.35;;;11.20;99.90;;;;;;5040788;28;20053;-64
2021/09/22 03:39:07;;;;;;;49.97;27.48;;;11.30;99.90;;;;;;5033511;28;20052;-64
2021/09/22 03:41:33;;;;;;;47.67;27.02;;;11.20;99.90;;;;;;5040754;28;20052;-64
2021/09/22 03:43:58;;;;;;;52.40;28.23;;;11.20;99.90;;;;;;5044742;28;20088;-64
2021/09/22 03:46:24;;;;;;;55.05;28.63;;;11.40;99.90;;;;;;5041096;28;20517;-64
2021/09/22 03:48:50;;;;;;;46.85;26.27;;;11.30;99.90;;;;;;5044140;28;20066;-64
2021/09/22 03:51:15;;;;;;;55.45;30.08;;;11.40;99.90;;;;;;5035719;28;20050;-64
2021/09/22 03:53:41;;;;;;;46.83;25.75;;;11.30;99.90;;;;;;5044004;28;20052;-64
2021/09/22 03:56:07;;;;;;;54.38;28.10;;;11.20;99.90;;;;;;5043648;28;20057;-64
2021/09/22 03:58:33;;;;;;;50.13;27.55;;;11.20;99.90;;;;;;5042041;28;20073;-64
2021/09/22 04:00:59;;;;;;;47.10;27.15;;;11.20;99.90;;;;;;5043094;28;20519;-64
2021/09/22 04:03:24;;;;;;;58.40;30.23;;;11.30;99.90;;;;;;5044022;28;20045;-64
2021/09/22 04:05:50;;;;;;;57.70;28.38;;;11.30;99.90;;;;;;5043488;28;20084;-64
2021/09/22 04:08:16;;;;;;;60.58;30.92;;;11.30;99.90;;;;;;5043777;28;20075;-64
2021/09/22 04:10:42;;;;;;;44.30;26.67;;;11.30;99.90;;;;;;5036915;28;20405;-64
2021/09/22 04:13:07;;;;;;;50.50;28.58;;;11.40;99.90;;;;;;5035064;28;20053;-64
2021/09/22 04:15:33;;;;;;;55.47;30.38;;;11.40;99.90;;;;;;5043634;28;20046;-64
2021/09/22 04:17:59;;;;;;;58.35;31.55;;;11.40;99.90;;;;;;5034797;28;20054;-64
2021/09/22 04:20:24;;;;;;;52.22;29.45;;;11.40;99.90;;;;;;5041457;28;20075;-64
2021/09/22 04:22:50;;;;;;;52.45;30.30;;;11.40;99.90;;;;;;5043785;28;20045;-64
2021/09/22 04:25:16;;;;;;;54.85;28.48;;;11.40;99.90;;;;;;5043206;28;20068;-64
2021/09/22 04:27:42;;;;;;;61.30;31.67;;;11.30;99.90;;;;;;5042842;28;20048;-64
2021/09/22 04:30:09;;;;;;;57.40;31.55;;;11.30;99.90;;;;;;5043836;28;20072;-64
2021/09/22 04:32:35;;;;;;;61.35;33.20;;;11.30;99.90;;;;;;5040729;28;20424;-64
2021/09/22 04:35:01;;;;;;;50.45;29.20;;;11.30;99.90;;;;;;5035067;28;20111;-64
2021/09/22 04:37:32;;;;;;;55.15;30.85;;;11.30;99.90;;;;;;5039093;28;20073;-64
2021/09/22 04:39:57;;;;;;;51.30;29.38;;;11.30;99.90;;;;;;5036519;28;20517;-64
2021/09/22 04:42:23;;;;;;;61.58;33.35;;;11.30;99.90;;;;;;5042804;28;20045;-64
2021/09/22 04:44:49;;;;;;;64.20;32.53;;;11.30;99.90;;;;;;5043417;28;20095;-65
2021/09/22 04:47:14;;;;;;;67.97;33.45;;;11.20;99.90;;;;;;5041724;28;20085;-64
2021/09/22 04:49:40;;;;;;;80.05;38.10;;;11.20;99.90;;;;;;5043473;28;20498;-64
2021/09/22 04:52:06;;;;;;;78.32;38.60;;;11.30;99.90;;;;;;5040861;28;20045;-64
2021/09/22 04:54:31;;;;;;;55.30;34.08;;;11.40;99.90;;;;;;5030902;28;20086;-65
2021/09/22 04:56:57;;;;;;;65.03;36.28;;;11.50;99.90;;;;;;5042062;28;20050;-64
2021/09/22 04:59:22;;;;;;;63.33;35.53;;;11.50;99.90;;;;;;5043369;28;20045;-64
2021/09/22 05:01:48;;;;;;;66.53;36.50;;;11.50;99.90;;;;;;5043483;28;20112;-64
2021/09/22 05:04:14;;;;;;;79.40;38.85;;;11.50;99.90;;;;;;5042437;28;20081;-64
2021/09/22 05:06:40;;;;;;;67.93;34.08;;;11.60;99.90;;;;;;5042016;28;20041;-64
2021/09/22 05:09:05;;;;;;;64.28;34.22;;;11.50;99.90;;;;;;5043278;28;20037;-64
2021/09/22 05:11:31;;;;;;;63.47;35.13;;;11.40;99.90;;;;;;5043298;28;20532;-64
2021/09/22 05:13:56;;;;;;;75.03;37.60;;;11.40;99.90;;;;;;5046251;28;20116;-64
2021/09/22 05:16:22;;;;;;;73.28;37.30;;;11.30;99.90;;;;;;5047157;28;20046;-64
2021/09/22 05:18:48;;;;;;;80.25;38.13;;;11.30;99.90;;;;;;5046885;28;20033;-64
2021/09/22 05:21:14;;;;;;;85.28;38.65;;;11.20;99.90;;;;;;5046398;28;20049;-64
2021/09/22 05:23:39;;;;;;;71.20;38.78;;;11.20;99.90;;;;;;5045552;28;20049;-64
2021/09/22 05:26:05;;;;;;;69.25;37.00;;;11.20;99.90;;;;;;5046365;28;20100;-64
2021/09/22 05:28:31;;;;;;;71.05;36.60;;;11.20;99.90;;;;;;5046291;28;20596;-64
2021/09/22 05:30:57;;;;;;;70.63;37.08;;;11.20;99.90;;;;;;5035618;28;20113;-64
2021/09/22 05:33:23;;;;;;;88.47;40.50;;;11.20;99.90;;;;;;5045850;28;20042;-64
2021/09/22 05:35:48;;;;;;;65.95;36.72;;;11.30;99.90;;;;;;5037905;28;20108;-64
2021/09/22 05:38:15;;;;;;;60.63;35.88;;;11.30;99.90;;;;;;5042238;28;20133;-64
2021/09/22 05:40:41;;;;;;;59.05;34.15;;;11.20;99.90;;;;;;5041075;28;20061;-64
2021/09/22 05:43:06;;;;;;;73.85;38.92;;;11.40;99.90;;;;;;5040676;28;20106;-65
2021/09/22 05:45:32;;;;;;;64.55;37.63;;;11.40;99.90;;;;;;5039481;28;20045;-64
2021/09/22 05:47:58;;;;;;;62.88;35.63;;;11.40;99.90;;;;;;5038851;28;20057;-64
2021/09/22 05:50:24;;;;;;;62.78;36.15;;;11.40;99.90;;;;;;5038352;28;20045;-64
2021/09/22 05:52:50;;;;;;;70.05;38.58;;;11.40;99.90;;;;;;5043250;28;20046;-64
2021/09/22 05:55:15;;;;;;;52.30;32.65;;;11.40;99.90;;;;;;5044820;28;20041;-64
2021/09/22 05:57:41;;;;;;;67.30;36.22;;;11.50;99.90;;;;;;5038553;28;20141;-65
2021/09/22 06:00:07;;;;;;;67.30;35.53;;;11.40;99.90;;;;;;5043740;28;20041;-64
2021/09/22 06:02:33;;;;;;;57.03;34.50;;;11.50;99.90;;;;;;5046023;28;20084;-64
2021/09/22 06:04:59;;;;;;;64.07;35.90;;;11.50;99.90;;;;;;5045567;28;20042;-64
2021/09/22 06:07:25;;;;;;;52.28;34.55;;;11.50;99.90;;;;;;5044836;28;20042;-64
2021/09/22 06:09:51;;;;;;;56.67;34.30;;;11.60;99.90;;;;;;5046031;28;20081;-64
2021/09/22 06:12:18;;;;;;;54.28;32.78;;;11.60;99.90;;;;;;5045467;28;20045;-64
2021/09/22 06:14:43;;;;;;;53.13;31.85;;;11.60;99.90;;;;;;5039332;28;20053;-64
2021/09/22 06:17:09;;;;;;;59.72;35.05;;;11.60;99.90;;;;;;5034870;28;20034;-64
2021/09/22 06:19:35;;;;;;;54.25;33.35;;;11.70;99.90;;;;;;5046008;28;20049;-64
2021/09/22 06:22:01;;;;;;;62.55;33.03;;;11.70;99.90;;;;;;5042533;28;20045;-64
2021/09/22 06:24:26;;;;;;;53.95;31.83;;;11.80;99.90;;;;;;5045072;28;20045;-64
2021/09/22 06:26:52;;;;;;;51.20;29.90;;;11.80;99.90;;;;;;5044535;28;20105;-65
2021/09/22 06:29:18;;;;;;;51.63;31.05;;;11.90;99.90;;;;;;5045870;28;20048;-64
2021/09/22 06:31:44;;;;;;;54.80;30.77;;;12.00;99.90;;;;;;5044765;28;20041;-64
2021/09/22 06:34:09;;;;;;;51.90;30.55;;;12.00;99.90;;;;;;5041485;28;20075;-64
2021/09/22 06:36:35;;;;;;;47.50;29.90;;;12.00;99.90;;;;;;5044266;28;20037;-64
2021/09/22 06:39:01;;;;;;;40.10;28.85;;;12.00;99.90;;;;;;5038807;28;20061;-64
2021/09/22 06:41:29;;;;;;;46.22;28.30;;;12.00;99.90;;;;;;5042966;28;20516;-65
2021/09/22 06:43:56;;;;;;;50.78;30.35;;;12.00;99.90;;;;;;5044941;28;20057;-64
2021/09/22 06:46:22;;;;;;;52.53;30.65;;;12.10;99.90;;;;;;5039699;28;20051;-64
2021/09/22 06:48:47;;;;;;;38.70;26.90;;;12.10;99.90;;;;;;5045159;28;20132;-64
2021/09/22 06:51:17;;;;;;;43.65;26.67;;;12.10;99.90;;;;;;5044220;28;20038;-64
2021/09/22 06:53:43;;;;;;;47.47;27.73;;;12.20;99.90;;;;;;5044685;28;20041;-64
2021/09/22 06:56:09;;;;;;;51.28;26.77;;;12.30;99.90;;;;;;5040842;28;20073;-65
2021/09/22 06:58:34;;;;;;;40.13;25.73;;;12.40;99.90;;;;;;5043765;28;20041;-64
2021/09/22 07:01:00;;;;;;;38.33;24.83;;;12.50;99.90;;;;;;5074797;28;20042;-64
2021/09/22 07:03:26;;;;;;;41.17;25.35;;;12.50;99.90;;;;;;5038515;28;20125;-64
2021/09/22 07:05:52;;;;;;;35.92;23.20;;;12.60;99.90;;;;;;5039533;28;20490;-64
2021/09/22 07:08:19;;;;;;;37.08;22.73;;;12.70;99.90;;;;;;5043152;28;20073;-64
2021/09/22 07:10:45;;;;;;;37.63;24.33;;;12.80;99.90;;;;;;5075496;28;20113;-64
2021/09/22 07:13:12;;;;;;;35.15;23.63;;;12.80;99.90;;;;;;5044195;28;20049;-64
2021/09/22 07:15:38;;;;;;;34.95;21.90;;;12.90;99.90;;;;;;5043427;28;20042;-64
2021/09/22 07:18:04;;;;;;;34.05;21.38;;;13.00;99.90;;;;;;5043126;28;20042;-64
2021/09/22 07:20:30;;;;;;;34.47;22.20;;;13.10;99.90;;;;;;5040861;28;20049;-64
2021/09/22 07:22:55;;;;;;;31.83;21.35;;;13.10;99.90;;;;;;5039484;28;20119;-64
2021/09/22 07:25:21;;;;;;;31.15;20.52;;;13.20;99.90;;;;;;5042943;28;20090;-64
2021/09/22 07:27:47;;;;;;;36.72;21.65;;;13.20;99.90;;;;;;5038870;28;20536;-64
2021/09/22 07:30:14;;;;;;;31.10;19.65;;;13.20;99.90;;;;;;5037169;28;20060;-64
2021/09/22 07:32:42;;;;;;;27.20;19.90;;;13.30;99.90;;;;;;5041217;28;20053;-63
2021/09/22 07:35:08;;;;;;;27.58;19.25;;;13.40;99.90;;;;;;5036788;28;20296;-64
2021/09/22 07:37:33;;;;;;;33.38;18.80;;;13.50;99.90;;;;;;5038815;28;20041;-64
2021/09/22 07:39:59;;;;;;;26.05;17.92;;;13.70;99.90;;;;;;5035140;28;20053;-76
2021/09/22 07:42:25;;;;;;;27.58;17.25;;;13.90;99.90;;;;;;5032547;28;20064;-74
2021/09/22 07:44:53;;;;;;;22.55;15.10;;;14.10;99.90;;;;;;5034946;28;20033;-72
2021/09/22 07:47:20;;;;;;;22.38;16.27;;;14.30;99.90;;;;;;5038104;28;20057;-69
2021/09/22 07:49:46;;;;;;;22.17;16.38;;;14.30;99.90;;;;;;5034677;28;20081;-71
2021/09/22 07:52:13;;;;;;;23.65;16.00;;;14.30;99.90;;;;;;5035090;28;20218;-68
2021/09/22 07:54:39;;;;;;;24.65;18.20;;;14.20;99.90;;;;;;5033128;28;20052;-68
2021/09/22 07:57:04;;;;;;;26.20;16.33;;;14.20;99.90;;;;;;5032519;28;20041;-67
2021/09/22 07:59:31;;;;;;;26.27;16.80;;;14.30;99.90;;;;;;5033414;28;20587;-67
2021/09/22 08:01:58;;;;;;;22.00;15.98;;;14.50;99.90;;;;;;5032340;28;20098;-70
2021/09/22 08:04:24;;;;;;;23.15;15.35;;;14.70;99.90;;;;;;5038509;28;20123;-69
2021/09/22 08:06:50;;;;;;;27.33;15.70;;;14.80;99.90;;;;;;5040519;28;20041;-69
2021/09/22 08:09:16;;;;;;;25.00;16.38;;;14.90;99.90;;;;;;5036296;28;20037;-68
2021/09/22 08:11:42;;;;;;;19.80;15.35;;;15.10;99.90;;;;;;5040336;28;20049;-69
2021/09/22 08:14:08;;;;;;;22.70;16.25;;;15.20;99.90;;;;;;5040858;28;20046;-67
2021/09/22 08:16:34;;;;;;;21.30;15.75;;;15.30;99.90;;;;;;5040155;28;20104;-69
2021/09/22 08:18:59;;;;;;;16.38;13.70;;;15.50;99.90;;;;;;5037708;28;20136;-67
2021/09/22 08:21:25;;;;;;;22.48;16.45;;;15.60;99.90;;;;;;5037081;28;20040;-67
2021/09/22 08:23:51;;;;;;;19.92;15.13;;;15.80;99.90;;;;;;5042601;28;20044;-68
2021/09/22 08:26:17;;;;;;;17.75;14.20;;;16.00;99.90;;;;;;5036540;28;20037;-67
2021/09/22 08:28:42;;;;;;;23.33;15.05;;;16.10;99.90;;;;;;5041248;28;20044;-67
2021/09/22 08:31:08;;;;;;;21.55;15.15;;;16.10;99.90;;;;;;5034516;28;20068;-67
2021/09/22 08:33:34;;;;;;;18.90;15.00;;;16.20;99.90;;;;;;5033649;28;20045;-67
2021/09/22 08:35:59;;;;;;;23.77;15.05;;;16.20;99.90;;;;;;5036682;28;20757;-68
2021/09/22 08:38:25;;;;;;;17.98;14.45;;;16.30;99.90;;;;;;5039007;28;20044;-69
2021/09/22 08:40:52;;;;;;;18.92;15.10;;;16.40;99.90;;;;;;5041526;28;20048;-68
2021/09/22 08:43:22;;;;;;;18.90;14.63;;;16.50;99.90;;;;;;5038216;28;20034;-67
2021/09/22 08:45:48;;;;;;;21.75;15.45;;;16.60;99.90;;;;;;5039289;28;20376;-68
2021/09/22 08:48:13;;;;;;;19.95;14.57;;;16.80;99.90;;;;;;5040606;28;20087;-68
2021/09/22 08:50:40;;;;;;;18.60;15.17;;;16.90;99.90;;;;;;5045134;28;20429;-68
2021/09/22 08:53:07;;;;;;;20.25;15.90;;;17.00;99.90;;;;;;5042774;28;20313;-68
2021/09/22 08:55:32;;;;;;;19.20;15.02;;;17.10;99.90;;;;;;5043487;28;20046;-68
2021/09/22 08:58:00;;;;;;;22.73;15.82;;;17.30;99.90;;;;;;5046983;28;20128;-67
2021/09/22 09:00:26;;;;;;;21.80;16.42;;;17.30;99.90;;;;;;5044510;28;20046;-67
2021/09/22 09:02:52;;;;;;;22.67;17.48;;;17.20;99.90;;;;;;5044825;28;20128;-67
2021/09/22 09:05:20;;;;;;;24.02;17.50;;;17.20;99.90;;;;;;5036954;28;20080;-67
2021/09/22 09:08:01;;;;;;;25.80;17.08;;;17.30;99.90;;;;;;5045737;28;20048;-67
2021/09/22 09:10:31;;;;;;;24.08;17.67;;;17.30;99.90;;;;;;5043828;28;20038;-67
2021/09/22 09:13:07;;;;;;;26.95;17.88;;;17.30;99.90;;;;;;5037427;28;20053;-72
2021/09/22 09:15:40;;;;;;;27.00;18.48;;;17.30;99.90;;;;;;5038731;28;20501;-68
2021/09/22 09:18:26;;;;;;;25.95;17.08;;;17.20;99.90;;;;;;5045941;28;20049;-68
2021/09/22 09:20:54;;;;;;;25.77;17.85;;;17.30;99.90;;;;;;5040823;28;20041;-66
2021/09/22 09:23:24;;;;;;;25.73;16.58;;;17.40;99.90;;;;;;5046106;28;20048;-65
2021/09/22 09:26:03;;;;;;;25.35;16.80;;;17.50;99.90;;;;;;5037784;28;20068;-66
2021/09/22 09:28:55;;;;;;;26.38;18.15;;;17.60;99.90;;;;;;5040994;28;20056;-71
2021/09/22 09:31:22;;;;;;;27.60;17.42;;;17.60;99.90;;;;;;5039213;28;20109;-70
2021/09/22 09:33:56;;;;;;;25.23;17.42;;;17.60;99.90;;;;;;5043344;28;20042;-71
2021/09/22 09:36:45;;;;;;;25.88;18.58;;;17.80;99.90;;;;;;5042866;28;20234;-71
2021/09/22 09:39:23;;;;;;;27.48;18.10;;;17.90;99.90;;;;;;5044439;28;20095;-72
2021/09/22 09:41:55;;;;;;;27.30;18.83;;;17.80;99.90;;;;;;5043553;28;20045;-71
2021/09/22 09:44:30;;;;;;;26.85;17.45;;;17.90;99.90;;;;;;5044708;28;20585;-70
2021/09/22 09:47:09;;;;;;;27.55;17.30;;;17.90;99.90;;;;;;5037825;28;20399;-63
2021/09/22 09:49:40;;;;;;;29.92;17.55;;;18.00;99.90;;;;;;5035989;28;20053;-64
2021/09/22 09:52:05;;;;;;;24.70;16.55;;;18.20;99.90;;;;;;5078377;28;20060;-66
2021/09/22 09:54:36;;;;;;;31.05;18.27;;;18.40;99.90;;;;;;5041881;28;20049;-64
2021/09/22 09:57:14;;;;;;;27.65;17.55;;;18.50;99.90;;;;;;5042137;28;20480;-63
2021/09/22 09:59:45;;;;;;;32.28;18.75;;;18.40;99.90;;;;;;5040468;28;20045;-64
2021/09/22 10:02:30;;;;;;;31.55;17.10;;;18.50;99.90;;;;;;5033552;28;20081;-65
2021/09/22 10:05:00;;;;;;;26.55;17.23;;;18.70;99.90;;;;;;5037147;28;20045;-66
2021/09/22 10:07:27;;;;;;;27.77;19.50;;;18.90;99.90;;;;;;5036674;28;20091;-65
2021/09/22 10:09:53;;;;;;;;;;;18.80;99.90;;;;;;5044510;28;20116;-71
2021/09/22 10:12:19;;;;;;;28.08;18.90;;;18.80;99.90;;;;;;5042076;28;19959;-71
2021/09/22 10:14:47;;;;;;;26.10;18.50;;;19.00;99.90;;;;;;5044715;28;20128;-71
2021/09/22 10:17:15;;;;;;;25.40;17.38;;;18.80;99.90;;;;;;5042286;28;20080;-72
2021/09/22 10:19:44;;;;;;;22.98;13.93;;;19.00;99.90;;;;;;5037455;28;20046;-71
2021/09/22 10:22:10;;;;;;;23.95;16.40;;;18.80;99.90;;;;;;5041070;28;20050;-80
2021/09/22 10:24:36;;;;;;;30.13;17.63;;;18.90;99.90;;;;;;5044682;28;20045;-63
2021/09/22 10:27:02;;;;;;;30.60;19.10;;;18.90;99.90;;;;;;5041399;28;20291;-65
2021/09/22 10:29:35;;;;;;;22.90;16.42;;;19.00;99.90;;;;;;5039128;28;20038;-66
2021/09/22 10:32:02;;;;;;;26.73;17.13;;;19.00;99.90;;;;;;5040790;28;20045;-66
2021/09/22 10:34:34;;;;;;;24.58;17.30;;;18.90;99.90;;;;;;5035708;28;20556;-64
2021/09/22 10:37:03;;;;;;;27.67;17.63;;;18.90;99.90;;;;;;5036424;28;20044;-68
2021/09/22 10:39:34;;;;;;;25.17;16.55;;;19.00;99.90;;;;;;5036778;28;20041;-66
2021/09/22 10:42:00;;;;;;;30.50;16.17;;;18.90;99.90;;;;;;5039112;28;20046;-73
2021/09/22 10:44:37;;;;;;;23.65;15.52;;;19.00;99.90;;;;;;5037869;28;20038;-72
2021/09/22 10:47:30;;;;;;;23.77;15.80;;;19.10;99.90;;;;;;5039758;28;20119;-73
2021/09/22 10:49:56;;;;;;;22.98;15.85;;;19.20;99.90;;;;;;5038403;28;20046;-75
2021/09/22 10:52:37;;;;;;;21.63;15.32;;;19.40;99.90;;;;;;5040178;28;20075;-74
2021/09/22 10:55:10;;;;;;;24.88;17.00;;;19.40;99.90;;;;;;5042130;28;20069;-72
2021/09/22 10:57:37;;;;;;;26.33;16.55;;;19.70;99.90;;;;;;5044038;28;20057;-79
2021/09/22 11:00:09;;;;;;;27.77;16.95;;;19.70;99.90;;;;;;5040652;28;20050;-78
2021/09/22 11:02:53;;;;;;;25.63;16.85;;;19.70;99.90;;;;;;5042067;28;20053;-80
2021/09/22 11:05:27;;;;;;;25.88;16.52;;;19.60;99.90;;;;;;5039959;28;20049;-69
2021/09/22 11:07:53;;;;;;;24.23;17.08;;;19.60;99.90;;;;;;5031871;28;20540;-72
2021/09/22 11:10:54;;;;;;;23.90;16.90;;;19.60;99.90;;;;;;5039314;28;20048;-66
2021/09/22 11:13:21;;;;;;;24.52;16.88;;;19.60;99.90;;;;;;5042440;28;20076;-72
2021/09/22 11:15:47;;;;;;;22.00;17.25;;;19.50;99.90;;;;;;5037664;28;20057;-69
2021/09/22 11:18:15;;;;;;;20.92;13.10;;;19.80;99.90;;;;;;5044466;28;20503;-67
2021/09/22 11:20:50;;;;;;;18.10;11.77;;;20.00;99.90;;;;;;5040866;28;20042;-71
2021/09/22 11:23:16;;;;;;;21.95;12.45;;;20.20;99.90;;;;;;5042662;28;20046;-69
2021/09/22 11:25:42;;;;;;;18.63;11.63;;;20.60;99.90;;;;;;5043869;28;20650;-69
2021/09/22 11:28:08;;;;;;;21.10;12.88;;;20.60;99.90;;;;;;5036864;28;20052;-65
2021/09/22 11:30:53;;;;;;;19.83;12.23;;;20.30;99.90;;;;;;5138582;27;20397;-73
2021/09/22 11:33:21;;;;;;;15.27;10.57;;;20.20;99.90;;;;;;5119316;28;20068;-62
2021/09/22 11:35:47;;;;;;;15.70;9.82;;;20.40;99.90;;;;;;5118280;28;20048;-71
2021/09/22 11:38:13;;;;;;;19.10;9.73;;;20.80;99.90;;;;;;5117854;28;20039;-71
2021/09/22 11:40:40;;;;;;;14.97;8.67;;;;;;;;;;5117230;28;20127;-67
2021/09/22 11:43:13;;;;;;;17.90;8.00;;;22.30;99.90;;;;;;5119854;28;20049;-67
2021/09/22 11:45:46;;;;;;;11.65;6.53;;;22.60;99.90;;;;;;5113232;28;20040;-67
2021/09/22 11:48:26;;;;;;;12.40;7.18;;;22.80;99.90;;;;;;5115592;28;20028;-73
2021/09/22 11:50:52;;;;;;;13.70;5.82;;;22.60;99.90;;;;;;5116878;28;20040;-74
2021/09/22 11:53:21;;;;;;;20.13;5.97;;;22.70;99.90;;;;;;5108798;28;20067;-70
2021/09/22 11:55:48;;;;;;;11.85;6.40;;;22.60;99.90;;;;;;5112687;28;20039;-68
2021/09/22 11:58:17;;;;;;;10.90;6.05;;;22.60;99.90;;;;;;5116302;28;20058;-72
2021/09/22 12:00:44;;;;;;;13.02;5.47;;;22.70;99.90;;;;;;5110182;28;20062;-73
2021/09/22 12:03:14;;;;;;;10.63;5.65;;;22.70;99.90;;;;;;5110227;28;20044;-65
2021/09/22 12:05:42;;;;;;;14.60;4.97;;;22.40;99.90;;;;;;5107228;28;20040;-66
2021/09/22 12:08:09;;;;;;;8.35;4.53;;;22.00;99.90;;;;;;5112139;28;20071;-65
2021/09/22 12:10:41;;;;;;;14.38;5.50;;;21.60;99.90;;;;;;5113032;28;20047;-73
2021/09/22 12:13:07;;;;;;;17.88;5.40;;;21.60;99.90;;;;;;5115683;28;20044;-73
2021/09/22 12:15:34;;;;;;;14.07;5.65;;;21.60;99.90;;;;;;5117053;28;20044;-64
2021/09/22 12:18:00;;;;;;;12.40;4.93;;;21.50;99.90;;;;;;5096163;28;20047;-69
2021/09/22 12:20:29;;;;;;;13.13;6.30;;;21.70;99.90;;;;;;5117138;28;20115;-69
2021/09/22 12:23:01;;;;;;;14.45;5.97;;;21.60;99.90;;;;;;5112184;28;20036;-68
2021/09/22 12:25:27;;;;;;;8.73;4.78;;;21.60;99.90;;;;;;5116534;28;20043;-70
2021/09/22 12:27:54;;;;;;;10.88;5.20;;;21.50;99.90;;;;;;5118114;28;20048;-69
2021/09/22 12:30:36;;;;;;;8.93;5.80;;;21.30;99.90;;;;;;5113431;28;20052;-68